createdAt,value
2023-02-03T00:00:32.918Z,99363.25
2023-02-03T00:02:36.038Z,99355.38
2023-02-03T00:04:39.193Z,99351.25
2023-02-03T00:06:42.340Z,99357.56
2023-02-03T00:08:45.618Z,99359.22
2023-02-03T00:10:51.253Z,99359.38
2023-02-03T00:12:56.263Z,99358.44
2023-02-03T00:14:59.266Z,99364.47
2023-02-03T00:17:02.222Z,99362.03
2023-02-03T00:19:05.223Z,99358.75
2023-02-03T00:21:08.481Z,99357.03
2023-02-03T00:23:12.388Z,99356.84
2023-02-03T00:25:15.512Z,99356.91
2023-02-03T00:27:19.849Z,99354.25
2023-02-03T00:29:25.881Z,99351.75
2023-02-03T00:31:28.961Z,99365.72
2023-02-03T00:33:33.716Z,99356.09
2023-02-03T00:35:39.363Z,99358.63
2023-02-03T00:37:42.554Z,99363.13
2023-02-03T00:39:45.546Z,99375.22
2023-02-03T00:41:49.484Z,99388.97
2023-02-03T00:43:55.656Z,99394.09
2023-02-03T00:46:00.027Z,99394.06
2023-02-03T00:48:03.276Z,99383.59
2023-02-03T00:50:07.191Z,99387.16
2023-02-03T00:52:11.383Z,99381.00
2023-02-03T00:54:15.022Z,99369.88
2023-02-03T00:56:18.310Z,99369.84
2023-02-03T00:58:21.436Z,99381.22
2023-02-03T01:00:26.180Z,99391.47
2023-02-03T01:02:29.504Z,99388.03
2023-02-03T01:04:32.469Z,99388.03
2023-02-03T01:06:35.590Z,99386.31
2023-02-03T01:08:38.861Z,99376.03
2023-02-03T01:10:44.835Z,99367.34
2023-02-03T01:12:47.787Z,99346.66
2023-02-03T01:14:50.855Z,99330.50
2023-02-03T01:16:55.517Z,99341.75
2023-02-03T01:18:59.138Z,99342.63
2023-02-03T01:21:08.756Z,99347.94
2023-02-03T01:23:11.740Z,99352.19
2023-02-03T01:25:14.813Z,99359.06
2023-02-03T01:27:17.790Z,99356.41
2023-02-03T01:29:20.801Z,99347.91
2023-02-03T01:31:27.629Z,99352.06
2023-02-03T01:33:31.958Z,99345.06
2023-02-03T01:35:35.627Z,99332.06
2023-02-03T01:37:39.255Z,99332.44
2023-02-03T01:39:42.276Z,99334.41
2023-02-03T01:41:45.580Z,99325.94
2023-02-03T01:43:52.557Z,99317.72
2023-02-03T01:45:55.846Z,99331.63
2023-02-03T01:48:01.017Z,99326.59
2023-02-03T01:50:11.148Z,99335.94
2023-02-03T01:52:14.256Z,99345.38
2023-02-03T01:54:19.502Z,99347.81
2023-02-03T01:56:23.040Z,99338.13
2023-02-03T01:58:29.373Z,99331.06
2023-02-03T02:00:32.552Z,99323.16
2023-02-03T02:02:36.811Z,99317.06
2023-02-03T02:04:44.762Z,99317.41
2023-02-03T02:06:49.270Z,99318.19
2023-02-03T02:08:53.475Z,99308.75
2023-02-03T02:10:56.852Z,99306.19
2023-02-03T02:13:00.217Z,99289.56
2023-02-03T02:15:03.640Z,99283.56
2023-02-03T02:17:12.233Z,99274.88
2023-02-03T02:19:35.392Z,99264.59
2023-02-03T02:21:51.451Z,99262.19
2023-02-03T02:24:21.493Z,99266.31
2023-02-03T02:26:46.253Z,99261.75
2023-02-03T02:29:04.554Z,99256.31
2023-02-03T02:31:32.568Z,99241.38
2023-02-03T02:33:42.841Z,99237.16
2023-02-03T02:35:51.467Z,99222.66
2023-02-03T02:38:00.545Z,99224.03
2023-02-03T02:40:10.416Z,99241.81
2023-02-03T02:42:17.322Z,99260.75
2023-02-03T02:44:25.572Z,99261.25
2023-02-03T02:46:34.997Z,99270.41
2023-02-03T02:48:41.954Z,99269.25
2023-02-03T02:50:48.142Z,99281.09
2023-02-03T02:52:52.726Z,99278.28
2023-02-03T02:54:59.606Z,99280.69
2023-02-03T02:57:04.865Z,99266.75
2023-02-03T02:59:08.572Z,99256.38
2023-02-03T03:01:11.761Z,99250.31
2023-02-03T03:03:17.684Z,99241.75
2023-02-03T03:05:20.903Z,99247.97
2023-02-03T03:07:28.294Z,99253.91
2023-02-03T03:09:36.217Z,99250.09
2023-02-03T03:11:44.160Z,99248.16
2023-02-03T03:13:49.795Z,99241.94
2023-02-03T03:15:55.430Z,99246.84
2023-02-03T03:18:03.092Z,99233.78
2023-02-03T03:20:11.281Z,99243.28
2023-02-03T03:22:16.779Z,99245.13
2023-02-03T03:24:23.375Z,99255.41
2023-02-03T03:26:29.889Z,99264.00
2023-02-03T03:28:38.190Z,99274.16
2023-02-03T03:30:41.215Z,99285.31
2023-02-03T03:32:44.361Z,99275.75
2023-02-03T03:34:47.496Z,99273.03
2023-02-03T03:36:57.742Z,99282.41
2023-02-03T03:39:06.088Z,99277.97
2023-02-03T03:41:14.222Z,99290.13
2023-02-03T03:43:18.877Z,99296.09
2023-02-03T03:45:26.344Z,99303.06
2023-02-03T03:47:32.788Z,99308.13
2023-02-03T03:49:37.156Z,99304.53
2023-02-03T03:51:44.280Z,99311.38
2023-02-03T03:53:51.661Z,99313.09
2023-02-03T03:55:55.573Z,99309.56
2023-02-03T03:58:01.248Z,99319.13
2023-02-03T04:00:07.357Z,99315.50
2023-02-03T04:02:15.103Z,99314.69
2023-02-03T04:04:18.418Z,99314.88
2023-02-03T04:06:21.473Z,99323.53
2023-02-03T04:08:24.484Z,99313.97
2023-02-03T04:10:35.616Z,99311.38
2023-02-03T04:12:38.940Z,99323.25
2023-02-03T04:14:42.129Z,99309.44
2023-02-03T04:16:45.114Z,99304.47
2023-02-03T04:18:48.260Z,99311.19
2023-02-03T04:20:51.604Z,99312.09
2023-02-03T04:22:54.749Z,99312.28
2023-02-03T04:24:58.966Z,99314.09
2023-02-03T04:27:05.178Z,99312.34
2023-02-03T04:29:08.313Z,99308.13
2023-02-03T04:31:11.331Z,99306.44
2023-02-03T04:33:14.360Z,99303.94
2023-02-03T04:35:17.498Z,99304.72
2023-02-03T04:37:21.075Z,99295.09
2023-02-03T04:39:23.990Z,99291.63
2023-02-03T04:41:27.126Z,99295.91
2023-02-03T04:43:31.552Z,99300.22
2023-02-03T04:45:34.564Z,99313.22
2023-02-03T04:47:37.976Z,99318.53
2023-02-03T04:49:41.043Z,99299.47
2023-02-03T04:51:44.220Z,99282.16
2023-02-03T04:53:47.253Z,99283.81
2023-02-03T04:55:50.295Z,99281.44
2023-02-03T04:57:56.640Z,99287.38
2023-02-03T05:00:01.119Z,99293.03
2023-02-03T05:02:04.440Z,99285.06
2023-02-03T05:04:07.468Z,99279.75
2023-02-03T05:06:10.480Z,99298.25
2023-02-03T05:08:13.631Z,99300.38
2023-02-03T05:10:17.060Z,99312.13
2023-02-03T05:12:20.016Z,99307.72
2023-02-03T05:14:23.169Z,99299.81
2023-02-03T05:16:27.568Z,99302.59
2023-02-03T05:18:30.648Z,99293.75
2023-02-03T05:20:33.628Z,99291.16
2023-02-03T05:22:36.757Z,99295.59
2023-02-03T05:24:39.822Z,99290.28
2023-02-03T05:26:42.794Z,99285.63
2023-02-03T05:28:45.899Z,99299.44
2023-02-03T05:30:49.040Z,99297.56
2023-02-03T05:32:53.465Z,99300.16
2023-02-03T05:34:56.642Z,99313.31
2023-02-03T05:37:00.928Z,99315.78
2023-02-03T05:39:04.025Z,99317.50
2023-02-03T05:41:24.832Z,99321.91
2023-02-03T05:43:28.644Z,99329.56
2023-02-03T05:45:31.713Z,99320.03
2023-02-03T05:47:34.923Z,99312.97
2023-02-03T05:49:39.396Z,99304.25
2023-02-03T05:51:42.658Z,99293.88
2023-02-03T05:53:45.713Z,99279.25
2023-02-03T05:55:48.686Z,99269.69
2023-02-03T05:57:51.647Z,99284.59
2023-02-03T05:59:54.671Z,99286.50
2023-02-03T06:01:57.667Z,99303.84
2023-02-03T06:04:01.398Z,99300.16
2023-02-03T06:06:06.469Z,99311.97
2023-02-03T06:08:09.884Z,99290.28
2023-02-03T06:10:12.981Z,99300.78
2023-02-03T06:12:16.133Z,99304.44
2023-02-03T06:14:19.085Z,99300.19
2023-02-03T06:16:22.166Z,99298.66
2023-02-03T06:18:25.225Z,99296.38
2023-02-03T06:20:28.463Z,99290.38
2023-02-03T06:22:33.256Z,99298.16
2023-02-03T06:24:36.293Z,99292.22
2023-02-03T06:26:39.268Z,99285.28
2023-02-03T06:28:42.211Z,99277.72
2023-02-03T06:30:45.491Z,99276.25
2023-02-03T06:32:49.757Z,99283.00
2023-02-03T06:34:52.755Z,99270.22
2023-02-03T06:36:55.683Z,99277.03
2023-02-03T06:39:00.003Z,99263.56
2023-02-03T06:41:02.988Z,99269.69
2023-02-03T06:43:06.357Z,99263.00
2023-02-03T06:45:10.513Z,99258.63
2023-02-03T06:47:13.476Z,99244.91
2023-02-03T06:49:17.236Z,99245.94
2023-02-03T06:51:20.276Z,99245.38
2023-02-03T06:53:23.254Z,99246.19
2023-02-03T06:55:27.722Z,99240.28
2023-02-03T06:57:30.742Z,99249.84
2023-02-03T06:59:33.726Z,99257.44
2023-02-03T07:01:36.772Z,99259.16
2023-02-03T07:03:39.771Z,99254.81
2023-02-03T07:05:42.774Z,99250.44
2023-02-03T07:07:45.743Z,99253.81
2023-02-03T07:09:48.769Z,99252.13
2023-02-03T07:11:53.079Z,99257.19
2023-02-03T07:13:56.238Z,99249.47
2023-02-03T07:15:59.319Z,99257.28
2023-02-03T07:18:02.344Z,99245.25
2023-02-03T07:20:06.260Z,99253.78
2023-02-03T07:22:10.375Z,99260.81
2023-02-03T07:24:13.307Z,99247.69
2023-02-03T07:26:17.158Z,99250.34
2023-02-03T07:28:21.574Z,99250.44
2023-02-03T07:30:24.763Z,99263.06
2023-02-03T07:32:27.862Z,99274.91
2023-02-03T07:34:30.911Z,99272.16
2023-02-03T07:36:34.037Z,99289.16
2023-02-03T07:38:39.086Z,99294.94
2023-02-03T07:40:42.275Z,99297.25
2023-02-03T07:42:46.016Z,99303.91
2023-02-03T07:44:50.531Z,99296.88
2023-02-03T07:46:53.669Z,99305.34
2023-02-03T07:48:56.680Z,99307.78
2023-02-03T07:50:59.603Z,99309.41
2023-02-03T07:53:02.984Z,99325.59
2023-02-03T07:55:06.546Z,99321.31
2023-02-03T07:57:09.587Z,99327.16
2023-02-03T07:59:12.602Z,99326.69
2023-02-03T08:01:17.949Z,99337.09
2023-02-03T08:03:21.040Z,99333.56
2023-02-03T08:05:24.072Z,99339.84
2023-02-03T08:07:27.079Z,99346.19
2023-02-03T08:09:30.073Z,99338.25
2023-02-03T08:11:33.183Z,99326.88
2023-02-03T08:13:36.337Z,99324.56
2023-02-03T08:15:39.395Z,99320.53
2023-02-03T08:17:44.516Z,99331.91
2023-02-03T08:19:47.558Z,99334.66
2023-02-03T08:21:51.578Z,99330.34
2023-02-03T08:23:54.685Z,99333.19
2023-02-03T08:25:57.700Z,99321.28
2023-02-03T08:28:00.805Z,99314.47
2023-02-03T08:30:04.043Z,99299.16
2023-02-03T08:32:10.432Z,99313.06
2023-02-03T08:34:14.769Z,99318.16
2023-02-03T08:36:17.757Z,99319.88
2023-02-03T08:38:21.835Z,99331.31
2023-02-03T08:40:24.901Z,99358.72
2023-02-03T08:42:28.434Z,99355.66
2023-02-03T08:44:32.372Z,99352.03
2023-02-03T08:46:36.426Z,99340.50
2023-02-03T08:48:39.995Z,99337.03
2023-02-03T08:50:45.174Z,99342.22
2023-02-03T08:52:48.148Z,99332.66
2023-02-03T08:54:51.285Z,99337.75
2023-02-03T08:56:54.503Z,99347.34
2023-02-03T08:58:57.493Z,99342.16
2023-02-03T09:01:09.876Z,99332.78
2023-02-03T09:03:13.017Z,99324.31
2023-02-03T09:05:17.889Z,99325.50
2023-02-03T09:07:22.388Z,99327.72
2023-02-03T09:09:26.528Z,99330.69
2023-02-03T09:11:29.571Z,99322.63
2023-02-03T09:13:34.141Z,99325.00
2023-02-03T09:15:38.118Z,99332.56
2023-02-03T09:17:41.214Z,99332.28
2023-02-03T09:19:44.432Z,99332.22
2023-02-03T09:21:49.019Z,99332.09
2023-02-03T09:23:53.527Z,99348.41
2023-02-03T09:25:56.564Z,99338.97
2023-02-03T09:27:59.518Z,99356.88
2023-02-03T09:30:02.628Z,99346.13
2023-02-03T09:32:10.257Z,99352.19
2023-02-03T09:34:13.412Z,99350.25
2023-02-03T09:36:16.365Z,99333.66
2023-02-03T09:38:19.616Z,99332.59
2023-02-03T09:40:27.821Z,99330.25
2023-02-03T09:42:56.564Z,99325.78
2023-02-03T09:45:10.654Z,99329.88
2023-02-03T09:47:17.541Z,99332.53
2023-02-03T09:49:25.600Z,99323.00
2023-02-03T09:51:33.592Z,99319.53
2023-02-03T09:53:39.425Z,99316.75
2023-02-03T09:55:45.382Z,99303.06
2023-02-03T09:57:53.853Z,99303.28
2023-02-03T09:59:59.080Z,99302.06
2023-02-03T10:02:10.226Z,99295.09
2023-02-03T10:04:24.605Z,99301.88
2023-02-03T10:06:33.293Z,99300.75
2023-02-03T10:08:44.945Z,99310.06
2023-02-03T10:11:09.671Z,99317.56
2023-02-03T10:13:24.275Z,99321.63
2023-02-03T10:16:02.246Z,99321.44
2023-02-03T10:18:08.167Z,99322.09
2023-02-03T10:20:17.072Z,99315.81
2023-02-03T10:22:23.148Z,99331.34
2023-02-03T10:24:29.802Z,99330.34
2023-02-03T10:26:34.124Z,99324.38
2023-02-03T10:28:40.452Z,99327.00
2023-02-03T10:30:47.188Z,99328.63
2023-02-03T10:32:53.292Z,99324.25
2023-02-03T10:34:56.659Z,99317.47
2023-02-03T10:37:03.335Z,99315.63
2023-02-03T10:39:16.774Z,99321.84
2023-02-03T10:41:20.911Z,99317.22
2023-02-03T10:43:42.959Z,99309.97
2023-02-03T10:45:45.955Z,99326.91
2023-02-03T10:47:51.148Z,99324.13
2023-02-03T10:49:55.603Z,99330.28
2023-02-03T10:52:03.393Z,99322.34
2023-02-03T10:54:06.478Z,99322.16
2023-02-03T10:56:11.889Z,99314.34
2023-02-03T10:58:18.275Z,99314.34
2023-02-03T11:00:24.862Z,99304.06
2023-02-03T11:02:30.237Z,99295.22
2023-02-03T11:04:35.012Z,99301.09
2023-02-03T11:06:55.490Z,99295.75
2023-02-03T11:08:58.812Z,99293.28
2023-02-03T11:11:05.910Z,99283.13
2023-02-03T11:13:20.642Z,99265.88
2023-02-03T11:15:25.323Z,99272.22
2023-02-03T11:17:32.894Z,99268.56
2023-02-03T11:19:38.434Z,99277.28
2023-02-03T11:21:44.032Z,99275.66
2023-02-03T11:23:50.509Z,99280.72
2023-02-03T11:25:53.642Z,99277.28
2023-02-03T11:27:57.347Z,99286.38
2023-02-03T11:30:12.222Z,99279.59
2023-02-03T11:32:21.315Z,99275.97
2023-02-03T11:34:28.407Z,99281.25
2023-02-03T11:36:33.430Z,99285.69
2023-02-03T11:38:37.569Z,99271.81
2023-02-03T11:40:41.410Z,99267.53
2023-02-03T11:42:46.143Z,99262.34
2023-02-03T11:44:49.310Z,99265.72
2023-02-03T11:46:55.966Z,99273.50
2023-02-03T11:49:05.517Z,99250.88
2023-02-03T11:51:18.982Z,99257.78
2023-02-03T11:53:30.674Z,99243.13
2023-02-03T11:55:46.503Z,99249.34
2023-02-03T11:58:00.068Z,99258.81
2023-02-03T12:00:16.945Z,99244.06
2023-02-03T12:02:45.145Z,99237.03
2023-02-03T12:05:01.830Z,99235.41
2023-02-03T12:07:26.147Z,99228.53
2023-02-03T12:09:40.246Z,99232.03
2023-02-03T12:11:55.999Z,99234.56
2023-02-03T12:14:10.004Z,99239.75
2023-02-03T12:16:28.624Z,99233.72
2023-02-03T12:18:49.131Z,99237.72
2023-02-03T12:21:03.592Z,99230.72
2023-02-03T12:23:15.858Z,99224.88
2023-02-03T12:25:29.385Z,99218.88
2023-02-03T12:27:44.652Z,99205.00
2023-02-03T12:29:50.957Z,99202.25
2023-02-03T12:31:59.135Z,99188.38
2023-02-03T12:34:10.677Z,99192.31
2023-02-03T12:36:17.816Z,99172.91
2023-02-03T12:38:28.268Z,99183.25
2023-02-03T12:40:37.226Z,99184.03
2023-02-03T12:42:43.302Z,99175.44
2023-02-03T12:44:50.170Z,99170.97
2023-02-03T12:46:58.219Z,99163.25
2023-02-03T12:49:04.273Z,99164.06
2023-02-03T12:51:11.647Z,99156.06
2023-02-03T12:53:18.300Z,99165.69
2023-02-03T12:55:24.637Z,99153.53
2023-02-03T12:57:30.165Z,99152.69
2023-02-03T12:59:34.421Z,99163.38
2023-02-03T13:01:39.884Z,99161.59
2023-02-03T13:03:47.519Z,99166.88
2023-02-03T13:05:55.545Z,99167.84
2023-02-03T13:08:02.843Z,99155.63
2023-02-03T13:10:15.859Z,99154.63
2023-02-03T13:12:29.008Z,99124.09
2023-02-03T13:14:36.092Z,99131.09
2023-02-03T13:16:42.297Z,99135.38
2023-02-03T13:18:49.115Z,99114.66
2023-02-03T13:20:52.197Z,99127.78
2023-02-03T13:22:55.332Z,99135.38
2023-02-03T13:25:02.213Z,99127.53
2023-02-03T13:27:17.616Z,99116.28
2023-02-03T13:29:38.344Z,99097.00
2023-02-03T13:31:48.667Z,99099.53
2023-02-03T13:34:12.555Z,99071.25
2023-02-03T13:36:33.115Z,99076.53
2023-02-03T13:38:53.516Z,99068.88
2023-02-03T13:41:01.477Z,99050.06
2023-02-03T13:43:07.584Z,99047.94
2023-02-03T13:45:19.820Z,99055.66
2023-02-03T13:47:25.137Z,99059.47
2023-02-03T13:49:30.520Z,99063.81
2023-02-03T13:51:35.153Z,99078.72
2023-02-03T13:53:40.048Z,99078.59
2023-02-03T13:55:45.213Z,99067.41
2023-02-03T13:57:53.033Z,99073.66
2023-02-03T13:59:57.480Z,99079.63
2023-02-03T14:02:42.394Z,99069.88
2023-02-03T14:04:54.058Z,99070.91
2023-02-03T14:07:02.614Z,99069.16
2023-02-03T14:09:20.669Z,99070.91
2023-02-03T14:11:43.477Z,99082.22
2023-02-03T14:13:46.546Z,99087.44
2023-02-03T14:16:15.515Z,99076.13
2023-02-03T14:18:35.710Z,99100.38
2023-02-03T14:20:58.007Z,99099.53
2023-02-03T14:23:08.909Z,99104.09
2023-02-03T14:25:11.966Z,99074.34
2023-02-03T14:27:19.211Z,99066.69
2023-02-03T14:29:26.979Z,99090.16
2023-02-03T14:31:31.623Z,99087.56
2023-02-03T14:34:09.952Z,99092.75
2023-02-03T14:36:28.677Z,99101.72
2023-02-03T14:38:33.936Z,99099.25
2023-02-03T14:40:43.177Z,99106.03
2023-02-03T14:43:09.519Z,99110.34
2023-02-03T14:45:20.875Z,99116.50
2023-02-03T14:47:37.210Z,99108.84
2023-02-03T14:49:56.862Z,99115.53
2023-02-03T14:52:13.505Z,99122.31
2023-02-03T14:54:30.678Z,99120.81
2023-02-03T14:56:58.120Z,99130.31
2023-02-03T14:59:03.483Z,99121.56
2023-02-03T15:01:08.249Z,99124.16
2023-02-03T15:03:41.739Z,99139.63
2023-02-03T15:05:45.989Z,99114.63
2023-02-03T15:07:50.845Z,99123.97
2023-02-03T15:09:56.480Z,99119.63
2023-02-03T15:11:59.835Z,99108.44
2023-02-03T15:14:19.664Z,99110.00
2023-02-03T15:16:24.013Z,99123.06
2023-02-03T15:18:31.467Z,99131.78
2023-02-03T15:20:41.383Z,99130.94
2023-02-03T15:22:44.627Z,99117.88
2023-02-03T15:24:48.760Z,99116.09
2023-02-03T15:26:53.765Z,99124.50
2023-02-03T15:28:58.432Z,99130.59
2023-02-03T15:31:05.409Z,99129.84
2023-02-03T15:33:10.378Z,99142.03
2023-02-03T15:35:17.139Z,99132.84
2023-02-03T15:37:24.582Z,99153.44
2023-02-03T15:39:39.055Z,99153.38
2023-02-03T15:41:42.427Z,99153.50
2023-02-03T15:43:47.089Z,99146.75
2023-02-03T15:45:58.799Z,99158.84
2023-02-03T15:48:05.307Z,99153.63
2023-02-03T15:50:25.106Z,99172.59
2023-02-03T15:52:30.389Z,99159.69
2023-02-03T15:54:41.110Z,99155.56
2023-02-03T15:56:48.313Z,99158.09
2023-02-03T15:58:51.575Z,99165.22
2023-02-03T16:00:55.788Z,99158.31
2023-02-03T16:02:59.908Z,99163.75
2023-02-03T16:05:05.589Z,99167.25
2023-02-03T16:07:17.245Z,99177.69
2023-02-03T16:09:42.528Z,99182.97
2023-02-03T16:11:45.585Z,99172.56
2023-02-03T16:13:48.621Z,99169.91
2023-02-03T16:16:02.652Z,99171.59
2023-02-03T16:18:12.789Z,99176.19
2023-02-03T16:20:28.109Z,99178.72
2023-02-03T16:22:37.088Z,99181.13
2023-02-03T16:24:45.762Z,99164.06
2023-02-03T16:26:48.869Z,99161.47
2023-02-03T16:29:33.292Z,99167.38
2023-02-03T16:32:00.464Z,99164.69
2023-02-03T16:34:27.157Z,99166.66
2023-02-03T16:36:47.763Z,99166.00
2023-02-03T16:39:09.043Z,99157.44
2023-02-03T16:41:35.474Z,99160.94
2023-02-03T16:43:56.192Z,99149.56
2023-02-03T16:46:18.038Z,99150.59
2023-02-03T16:48:38.752Z,99157.69
2023-02-03T16:50:56.950Z,99178.28
2023-02-03T16:53:01.977Z,99170.69
2023-02-03T16:55:05.214Z,99193.19
2023-02-03T16:57:09.733Z,99182.59
2023-02-03T16:59:13.112Z,99186.78
2023-02-03T17:01:16.191Z,99181.78
2023-02-03T17:03:20.464Z,99171.25
2023-02-03T17:05:23.573Z,99177.44
2023-02-03T17:07:26.618Z,99182.66
2023-02-03T17:09:32.233Z,99190.44
2023-02-03T17:11:35.297Z,99185.19
2023-02-03T17:13:39.654Z,99176.31
2023-02-03T17:15:46.166Z,99176.38
2023-02-03T17:17:49.217Z,99172.13
2023-02-03T17:19:52.266Z,99162.56
2023-02-03T17:21:56.048Z,99161.66
2023-02-03T17:23:59.210Z,99165.94
2023-02-03T17:26:02.348Z,99163.66
2023-02-03T17:28:05.964Z,99158.31
2023-02-03T17:30:12.009Z,99158.38
2023-02-03T17:32:17.254Z,99168.72
2023-02-03T17:34:20.309Z,99177.44
2023-02-03T17:36:23.448Z,99188.63
2023-02-03T17:38:26.638Z,99180.00
2023-02-03T17:54:34.743Z,99196.28
2023-02-03T17:56:37.739Z,99187.59
2023-02-03T17:58:41.274Z,99178.84
2023-02-03T18:00:45.588Z,99180.56
2023-02-03T18:02:50.491Z,99191.91
2023-02-03T18:04:53.481Z,99210.91
2023-02-03T18:06:56.579Z,99190.06
2023-02-03T18:09:01.990Z,99201.34
2023-02-03T18:11:05.631Z,99204.72
2023-02-03T18:13:08.699Z,99209.94
2023-02-03T18:15:11.815Z,99195.19
2023-02-03T18:17:16.192Z,99207.44
2023-02-03T18:19:19.203Z,99203.06
2023-02-03T18:21:23.773Z,99207.31
2023-02-03T18:23:26.826Z,99216.00
2023-02-03T18:25:29.989Z,99214.28
2023-02-03T18:27:33.054Z,99216.81
2023-02-03T18:29:36.668Z,99222.84
2023-02-03T18:31:40.508Z,99211.88
2023-02-03T18:33:46.289Z,99216.19
2023-02-03T18:35:49.438Z,99212.78
2023-02-03T18:37:52.740Z,99217.97
2023-02-03T18:39:55.845Z,99207.56
2023-02-03T18:41:58.963Z,99210.84
2023-02-03T18:44:02.041Z,99222.97
2023-02-03T18:46:08.914Z,99218.91
2023-02-03T18:48:11.949Z,99231.09
2023-02-03T18:50:16.920Z,99238.06
2023-02-03T18:52:19.992Z,99239.69
2023-02-03T18:54:23.069Z,99229.19
2023-02-03T18:56:27.640Z,99222.34
2023-02-03T18:58:30.612Z,99227.47
2023-02-03T19:00:33.624Z,99236.31
2023-02-03T19:02:36.758Z,99231.09
2023-02-03T19:04:39.870Z,99228.44
2023-02-03T19:06:45.618Z,99226.91
2023-02-03T19:08:48.756Z,99218.22
2023-02-03T19:10:52.847Z,99215.56
2023-02-03T19:12:55.935Z,99227.72
2023-02-03T19:14:58.925Z,99226.78
2023-02-03T19:17:02.096Z,99238.78
2023-02-03T19:19:05.165Z,99238.00
2023-02-03T19:21:08.408Z,99244.91
2023-02-03T19:23:13.696Z,99248.53
2023-02-03T19:25:16.816Z,99235.72
2023-02-03T19:27:19.991Z,99235.78
2023-02-03T19:29:23.296Z,99242.50
2023-02-03T19:31:26.430Z,99249.41
2023-02-03T19:33:29.672Z,99258.91
2023-02-03T19:35:33.489Z,99259.94
2023-02-03T19:37:36.605Z,99284.06
2023-02-03T19:39:41.241Z,99267.63
2023-02-03T19:41:44.349Z,99258.91
2023-02-03T19:43:47.844Z,99274.50
2023-02-03T19:45:50.945Z,99276.28
2023-02-03T19:47:54.240Z,99264.69
2023-02-03T19:49:57.721Z,99264.00
2023-02-03T19:52:00.780Z,99252.94
2023-02-03T19:54:03.978Z,99258.91
2023-02-03T19:56:08.530Z,99258.97
2023-02-03T19:58:12.367Z,99267.84
2023-02-03T20:00:16.251Z,99266.06
2023-02-03T20:02:21.673Z,99272.03
2023-02-03T20:04:24.987Z,99242.63
2023-02-03T20:06:28.846Z,99254.63
2023-02-03T20:08:31.888Z,99258.28
2023-02-03T20:10:35.003Z,99259.16
2023-02-03T20:12:39.661Z,99250.41
2023-02-03T20:14:42.684Z,99251.19
2023-02-03T20:16:50.520Z,99251.38
2023-02-03T20:18:53.621Z,99242.44
2023-02-03T20:20:58.100Z,99246.69
2023-02-03T20:23:01.359Z,99251.00
2023-02-03T20:25:05.985Z,99252.03
2023-02-03T20:27:09.233Z,99250.88
2023-02-03T20:29:13.912Z,99262.16
2023-02-03T20:31:17.123Z,99257.78
2023-02-03T20:33:20.510Z,99240.34
2023-02-03T20:35:25.248Z,99244.78
2023-02-03T20:37:29.073Z,99259.44
2023-02-03T20:39:32.230Z,99276.09
2023-02-03T20:41:35.690Z,99274.13
2023-02-03T20:43:39.149Z,99281.94
2023-02-03T20:45:43.689Z,99283.69
2023-02-03T20:47:46.796Z,99279.16
2023-02-03T20:49:50.502Z,99287.72
2023-02-03T20:51:53.548Z,99290.38
2023-02-03T20:53:57.183Z,99277.25
2023-02-03T20:56:01.760Z,99284.03
2023-02-03T20:58:07.833Z,99283.38
2023-02-03T21:00:15.836Z,99279.91
2023-02-03T21:02:30.823Z,99271.03
2023-02-03T21:04:51.401Z,99257.25
2023-02-03T21:06:55.872Z,99260.81
2023-02-03T21:09:03.928Z,99260.13
2023-02-03T21:11:11.239Z,99280.78
2023-02-03T21:13:26.223Z,99299.88
2023-02-03T21:15:30.691Z,99300.72
2023-02-03T21:17:37.178Z,99285.13
2023-02-03T21:19:40.266Z,99298.13
2023-02-03T21:21:43.987Z,99291.91
2023-02-03T21:23:47.888Z,99298.69
2023-02-03T21:25:51.126Z,99302.03
2023-02-03T21:27:54.759Z,99298.56
2023-02-03T21:29:58.432Z,99288.06
2023-02-03T21:32:01.974Z,99297.50
2023-02-03T21:34:21.970Z,99272.31
2023-02-03T21:36:26.279Z,99271.34
2023-02-03T21:38:32.368Z,99268.88
2023-02-03T21:40:36.161Z,99268.94
2023-02-03T21:42:41.952Z,99269.78
2023-02-03T21:44:45.547Z,99276.75
2023-02-03T21:46:48.585Z,99274.84
2023-02-03T21:48:52.840Z,99276.56
2023-02-03T21:50:58.424Z,99283.41
2023-02-03T21:53:04.049Z,99278.97
2023-02-03T21:55:11.511Z,99290.06
2023-02-03T21:57:15.497Z,99283.16
2023-02-03T21:59:20.998Z,99276.94
2023-02-03T22:01:25.996Z,99282.09
2023-02-03T22:03:30.197Z,99286.38
2023-02-03T22:05:33.340Z,99288.09
2023-02-03T22:07:37.768Z,99299.31
2023-02-03T22:09:40.813Z,99296.91
2023-02-03T22:11:44.134Z,99296.91
2023-02-03T22:13:47.684Z,99305.22
2023-02-03T22:15:50.668Z,99304.41
2023-02-03T22:17:53.738Z,99299.25
2023-02-03T22:19:56.726Z,99301.09
2023-02-03T22:21:59.669Z,99304.41
2023-02-03T22:24:04.176Z,99304.53
2023-02-03T22:26:07.762Z,99304.41
2023-02-03T22:28:10.957Z,99312.97
2023-02-03T22:30:15.665Z,99322.53
2023-02-03T22:32:18.825Z,99316.56
2023-02-03T22:34:23.419Z,99320.06
2023-02-03T22:36:26.528Z,99327.03
2023-02-03T22:38:29.579Z,99319.38
2023-02-03T22:40:33.943Z,99323.81
2023-02-03T22:42:37.051Z,99334.97
2023-02-03T22:44:40.081Z,99327.16
2023-02-03T22:46:43.299Z,99340.09
2023-02-03T22:48:46.283Z,99339.13
2023-02-03T22:50:49.268Z,99332.94
2023-02-03T22:52:54.084Z,99329.44
2023-02-03T22:54:57.102Z,99328.66
2023-02-03T22:57:01.547Z,99323.38
2023-02-03T22:59:04.566Z,99320.00
2023-02-03T23:01:07.609Z,99332.06
2023-02-03T23:03:10.794Z,99338.84
2023-02-03T23:05:14.308Z,99340.50
2023-02-03T23:07:17.850Z,99332.69
2023-02-03T23:09:21.010Z,99323.97
2023-02-03T23:11:24.258Z,99322.34
2023-02-03T23:13:28.859Z,99329.09
2023-02-03T23:15:31.986Z,99325.78
2023-02-03T23:17:35.304Z,99341.28
2023-02-03T23:19:38.404Z,99339.56
2023-02-03T23:21:41.667Z,99340.25
2023-02-03T23:23:44.702Z,99347.91
2023-02-03T23:25:47.700Z,99340.03
2023-02-03T23:27:50.811Z,99346.09
2023-02-03T23:29:55.367Z,99353.81
2023-02-03T23:31:58.509Z,99345.06
2023-02-03T23:34:19.315Z,99353.69
2023-02-03T23:36:22.264Z,99352.72
2023-02-03T23:38:25.554Z,99350.97
2023-02-03T23:40:29.210Z,99347.53
2023-02-03T23:42:32.433Z,99358.72
2023-02-03T23:44:35.533Z,99345.75
2023-02-03T23:46:40.016Z,99346.66
2023-02-03T23:48:43.189Z,99344.00
2023-02-03T23:50:46.310Z,99349.19
2023-02-03T23:52:49.518Z,99356.94
2023-02-03T23:54:52.589Z,99358.66
2023-02-03T23:56:55.673Z,99353.38
2023-02-03T23:58:58.722Z,99356.81
